Terminal Aerodrome Forecast
Issued by NWS Wilmington, OH

Home | Current Version | Previous Version | Text Only | Print | Product List | Glossary On
Versions: 1 2 3 4 5 6 7 8 9 10 11 12 13 14 15 16 17 18 19 20 21 22 23 24 25
000
FTUS41 KILN 012300
TAFCVG
TAF
KCVG 012337Z 0200/0306 22006KT P6SM BKN050
     FM020100 20006KT P6SM BKN250
     FM020800 21007KT P6SM VCSH BKN080
     FM021000 22007KT P6SM -SHRA VCTS BKN040CB OVC120
     FM021700 25009KT P6SM VCSH BKN040
     FM022100 26010KT P6SM SCT040
     FM030000 25003KT P6SM SCT250=

USA.gov is the U.S. government's official web portal to all federal, state and local government web resources and services.